createdAt,value
2022-07-30T00:01:49.203Z,1008.56
2022-07-30T00:06:51.748Z,1008.544
2022-07-30T00:11:54.513Z,1008.541
2022-07-30T00:16:57.830Z,1008.547
2022-07-30T00:22:05.266Z,1008.552
2022-07-30T00:27:07.874Z,1008.613
2022-07-30T00:32:10.718Z,1008.497
2022-07-30T00:37:13.400Z,1008.468
2022-07-30T00:42:33.793Z,1008.53
2022-07-30T00:47:36.729Z,1008.489
2022-07-30T00:52:39.433Z,1008.327
2022-07-30T00:57:42.056Z,1008.369
2022-07-30T01:02:44.610Z,1008.417
2022-07-30T01:07:47.096Z,1008.387
2022-07-30T01:12:49.987Z,1008.395
2022-07-30T01:17:52.714Z,1008.34
2022-07-30T01:22:55.498Z,1008.346
2022-07-30T01:27:58.247Z,1008.302
2022-07-30T01:33:01.088Z,1008.305
2022-07-30T01:38:03.617Z,1008.308
2022-07-30T01:43:06.133Z,1008.261
2022-07-30T01:48:08.876Z,1008.243
2022-07-30T01:53:11.436Z,1008.215
2022-07-30T02:03:16.783Z,1008.247
2022-07-30T02:08:19.487Z,1008.265
2022-07-30T02:13:21.988Z,1008.3
2022-07-30T02:18:27.514Z,1008.234
2022-07-30T02:23:30.663Z,1008.297
2022-07-30T02:28:33.232Z,1008.252
2022-07-30T02:33:35.860Z,1008.173
2022-07-30T02:38:38.795Z,1008.166
2022-07-30T02:43:41.715Z,1008.164
2022-07-30T02:48:44.384Z,1008.197
2022-07-30T03:03:55.365Z,1008.153
2022-07-30T03:08:58.103Z,1008.154
2022-07-30T03:14:00.670Z,1008.225
2022-07-30T03:19:05.080Z,1008.256
2022-07-30T03:29:08.749Z,1008.316
2022-07-30T03:34:12.628Z,1008.346
2022-07-30T03:44:19.441Z,1008.549
2022-07-30T03:54:24.749Z,1008.546
2022-07-30T03:59:27.561Z,1008.636
2022-07-30T04:14:35.422Z,1008.638
2022-07-30T04:19:38.423Z,1008.709
2022-07-30T04:29:46.664Z,1008.73
2022-07-30T04:34:49.281Z,1008.781
2022-07-30T04:44:54.495Z,1008.754
2022-07-30T04:49:57.462Z,1008.781
2022-07-30T04:55:00.062Z,1008.772
2022-07-30T05:00:05.569Z,1008.702
2022-07-30T05:05:08.459Z,1008.744
2022-07-30T05:10:10.866Z,1008.751
2022-07-30T05:15:13.568Z,1008.725
2022-07-30T05:20:16.302Z,1008.7
2022-07-30T05:25:19.194Z,1008.732
2022-07-30T05:35:24.369Z,1008.717
2022-07-30T05:40:27.112Z,1008.632
2022-07-30T05:45:29.998Z,1008.653
2022-07-30T05:50:32.445Z,1008.706
2022-07-30T05:55:35.383Z,1008.729
2022-07-30T06:00:37.675Z,1008.757
2022-07-30T06:05:40.469Z,1008.837
2022-07-30T06:10:43.181Z,1008.847
2022-07-30T06:15:45.811Z,1008.886
2022-07-30T06:20:48.380Z,1008.895
2022-07-30T06:25:51.225Z,1008.874
2022-07-30T06:30:53.852Z,1008.959
2022-07-30T06:35:56.862Z,1008.975
2022-07-30T06:41:02.472Z,1008.989
2022-07-30T06:46:02.454Z,1009.016
2022-07-30T06:51:07.950Z,1009.037
2022-07-30T06:56:10.803Z,1009.08
2022-07-30T07:01:13.471Z,1009.051
2022-07-30T07:06:15.838Z,1009.094
2022-07-30T07:11:18.455Z,1009.081
2022-07-30T07:16:21.344Z,1009.106
2022-07-30T07:21:23.953Z,1009.111
2022-07-30T07:26:26.879Z,1009.08
2022-07-30T07:32:04.609Z,1009.122
2022-07-30T07:36:32.022Z,1009.16
2022-07-30T07:41:48.595Z,1009.142
2022-07-30T07:46:37.618Z,1009.211
2022-07-30T07:51:46.989Z,1009.226
2022-07-30T07:56:43.120Z,1009.247
2022-07-30T08:01:49.912Z,1009.219
2022-07-30T08:06:51.449Z,1009.15
2022-07-30T08:11:59.082Z,1009.192
2022-07-30T08:22:04.759Z,1009.219
2022-07-30T08:27:08.199Z,1009.253
2022-07-30T08:32:10.670Z,1009.229
2022-07-30T08:37:17.305Z,1009.21
2022-07-30T08:42:20.556Z,1009.201
2022-07-30T08:47:28.575Z,1009.198
2022-07-30T08:57:28.837Z,1009.251
2022-07-30T09:07:33.738Z,1009.24
2022-07-30T09:12:36.838Z,1009.186
2022-07-30T09:17:39.370Z,1009.225
2022-07-30T09:22:42.055Z,1009.222
2022-07-30T09:27:44.937Z,1009.219
2022-07-30T09:32:47.368Z,1009.17
2022-07-30T09:42:52.653Z,1009.141
2022-07-30T09:47:55.367Z,1009.164
2022-07-30T09:52:58.369Z,1009.198
2022-07-30T09:58:01.569Z,1009.221
2022-07-30T10:03:06.825Z,1009.174
2022-07-30T10:13:11.863Z,1009.167
2022-07-30T10:18:18.508Z,1009.234
2022-07-30T10:23:39.790Z,1009.204
2022-07-30T10:28:42.065Z,1009.208
2022-07-30T10:33:44.489Z,1009.182
2022-07-30T10:38:46.865Z,1009.214
2022-07-30T10:43:49.655Z,1009.177
2022-07-30T10:49:11.877Z,1009.209
2022-07-30T10:54:12.954Z,1009.106
2022-07-30T10:59:15.944Z,1009.113
2022-07-30T11:04:20.368Z,1009.073
2022-07-30T11:09:21.763Z,1009.082
2022-07-30T11:14:24.789Z,1009.111
2022-07-30T11:24:29.642Z,1009.031
2022-07-30T11:29:32.927Z,1009.088
2022-07-30T11:39:38.722Z,1009.122
2022-07-30T11:44:40.477Z,1009.069
2022-07-30T11:49:43.203Z,1008.962
2022-07-30T11:59:48.767Z,1008.973
2022-07-30T12:09:53.821Z,1008.943
2022-07-30T12:19:59.429Z,1008.957
2022-07-30T12:25:03.036Z,1008.871
2022-07-30T12:30:05.511Z,1008.985
2022-07-30T12:35:08.403Z,1009.043
2022-07-30T12:45:14.253Z,1009.122
2022-07-30T12:50:16.487Z,1009.016
2022-07-30T12:55:19.169Z,1008.911
2022-07-30T13:00:22.040Z,1008.871
2022-07-30T13:05:24.646Z,1008.977
2022-07-30T13:10:30.661Z,1008.891
2022-07-30T13:15:30.235Z,1008.953
2022-07-30T13:20:35.270Z,1008.866
2022-07-30T13:30:41.165Z,1008.918
2022-07-30T13:35:43.788Z,1008.794
2022-07-30T13:40:46.611Z,1008.826
2022-07-30T13:45:49.283Z,1008.81
2022-07-30T13:50:51.998Z,1008.91
2022-07-30T13:55:54.486Z,1008.771
2022-07-30T14:01:00.364Z,1008.757
2022-07-30T14:06:10.321Z,1008.689
2022-07-30T14:11:05.679Z,1008.769
2022-07-30T14:16:22.948Z,1008.654
2022-07-30T14:21:10.857Z,1008.672
2022-07-30T14:26:14.155Z,1008.644
2022-07-30T14:31:16.642Z,1008.643
2022-07-30T14:36:18.634Z,1008.652
2022-07-30T14:41:20.996Z,1008.581
2022-07-30T14:46:23.475Z,1008.599
2022-07-30T14:51:27.189Z,1008.704
2022-07-30T14:56:28.777Z,1008.657
2022-07-30T15:01:31.787Z,1008.688
2022-07-30T15:06:34.553Z,1008.686
2022-07-30T15:11:56.612Z,1008.709
2022-07-30T15:16:39.906Z,1008.762
2022-07-30T15:21:42.541Z,1008.687
2022-07-30T15:26:45.514Z,1008.63
2022-07-30T15:31:48.360Z,1008.625
2022-07-30T15:36:51.018Z,1008.565
2022-07-30T15:41:53.604Z,1008.529
2022-07-30T15:46:56.180Z,1008.624
2022-07-30T15:51:58.599Z,1008.599
2022-07-30T15:57:04.086Z,1008.639
2022-07-30T16:02:06.976Z,1008.584
2022-07-30T16:07:09.666Z,1008.567
2022-07-30T16:12:12.300Z,1008.555
2022-07-30T16:17:15.014Z,1008.547
2022-07-30T16:22:21.556Z,1008.581
2022-07-30T16:27:20.288Z,1008.528
2022-07-30T16:32:23.037Z,1008.563
2022-07-30T16:37:26.367Z,1008.632
2022-07-30T16:42:28.945Z,1008.666
2022-07-30T16:47:33.622Z,1008.637
2022-07-30T16:52:34.230Z,1008.762
2022-07-30T16:57:36.889Z,1008.787
2022-07-30T17:02:39.700Z,1008.715
2022-07-30T17:12:50.531Z,1008.808
2022-07-30T17:17:50.131Z,1008.8
2022-07-30T17:22:52.825Z,1008.835
2022-07-30T17:27:55.520Z,1008.854
2022-07-30T17:33:00.853Z,1008.893
2022-07-30T17:38:03.493Z,1008.896
2022-07-30T17:43:08.797Z,1008.912
2022-07-30T17:48:11.490Z,1008.92
2022-07-30T17:53:14.153Z,1008.914
2022-07-30T17:58:16.871Z,1008.983
2022-07-30T18:03:19.405Z,1008.943
2022-07-30T18:08:22.291Z,1008.92
2022-07-30T18:13:26.946Z,1008.973
2022-07-30T18:18:27.236Z,1008.989
2022-07-30T18:23:34.901Z,1009.033
2022-07-30T18:28:32.634Z,1009.05
2022-07-30T18:33:35.223Z,1009.065
2022-07-30T18:38:38.054Z,1009.071
2022-07-30T18:43:48.279Z,1009.063
2022-07-30T18:48:43.498Z,1009.165
2022-07-30T18:53:46.070Z,1009.211
2022-07-30T19:03:51.517Z,1009.284
2022-07-30T19:08:54.276Z,1009.324
2022-07-30T19:13:59.804Z,1009.393
2022-07-30T19:19:02.510Z,1009.469
2022-07-30T19:24:05.170Z,1009.497
2022-07-30T19:29:07.833Z,1009.532
2022-07-30T19:34:10.537Z,1009.624
2022-07-30T19:39:21.156Z,1009.654
2022-07-30T19:44:18.622Z,1009.694
2022-07-30T19:49:19.377Z,1009.713
2022-07-30T19:54:22.040Z,1009.733
2022-07-30T19:59:43.743Z,1009.716
2022-07-30T20:04:27.125Z,1009.65
2022-07-30T20:09:32.653Z,1009.72
2022-07-30T20:25:36.954Z,1009.669
2022-07-30T20:30:38.787Z,1009.611
2022-07-30T20:35:41.535Z,1009.693
2022-07-30T20:40:44.347Z,1009.703
2022-07-30T20:45:46.973Z,1009.705
2022-07-30T20:55:54.788Z,1009.629
2022-07-30T21:00:57.558Z,1009.65
2022-07-30T21:06:00.264Z,1009.601
2022-07-30T21:21:08.041Z,1009.429
2022-07-30T21:26:13.552Z,1009.437
2022-07-30T21:31:13.643Z,1009.454
2022-07-30T21:36:16.373Z,1009.423
2022-07-30T21:41:37.617Z,1009.472
2022-07-30T21:46:25.126Z,1009.469
2022-07-30T21:51:26.924Z,1009.467
2022-07-30T21:56:29.545Z,1009.459
2022-07-30T22:01:32.956Z,1009.499
2022-07-30T22:06:34.754Z,1009.495
2022-07-30T22:11:42.340Z,1009.469
2022-07-30T22:16:42.623Z,1009.441
2022-07-30T22:26:45.793Z,1009.459
2022-07-30T22:31:48.468Z,1009.477
2022-07-30T22:36:50.951Z,1009.492
2022-07-30T22:41:53.515Z,1009.464
2022-07-30T22:46:56.627Z,1009.462
2022-07-30T22:52:05.103Z,1009.44
2022-07-30T23:02:07.032Z,1009.395
2022-07-30T23:07:09.790Z,1009.401
2022-07-30T23:12:17.649Z,1009.31
2022-07-30T23:22:20.478Z,1009.325
2022-07-30T23:32:25.842Z,1009.274
2022-07-30T23:42:31.224Z,1009.237
2022-07-30T23:47:54.572Z,1009.321
